createdAt,value
2023-02-15T00:02:46.527Z,22.13
2023-02-15T00:07:40.063Z,22.10
2023-02-15T00:12:33.832Z,21.50
2023-02-15T00:17:30.052Z,21.27
2023-02-15T00:22:23.505Z,19.02
2023-02-15T00:27:17.061Z,18.60
2023-02-15T00:32:10.284Z,18.88
2023-02-15T00:37:03.542Z,19.55
2023-02-15T00:41:57.178Z,18.30
2023-02-15T00:46:50.595Z,20.92
2023-02-15T00:51:43.819Z,19.05
2023-02-15T00:56:36.990Z,16.88
2023-02-15T01:01:30.266Z,17.45
2023-02-15T01:06:23.668Z,18.83
2023-02-15T01:11:23.544Z,16.15
2023-02-15T01:16:20.085Z,17.17
2023-02-15T01:21:14.904Z,17.73
2023-02-15T01:26:10.545Z,16.60
2023-02-15T01:31:11.433Z,17.15
2023-02-15T01:36:05.568Z,17.35
2023-02-15T01:41:16.485Z,17.75
2023-02-15T01:46:11.576Z,16.70
2023-02-15T01:51:05.231Z,18.85
2023-02-15T01:56:05.637Z,15.85
2023-02-15T02:01:01.504Z,15.68
2023-02-15T02:05:55.694Z,16.20
2023-02-15T02:10:49.421Z,15.48
2023-02-15T02:16:02.324Z,15.02
2023-02-15T02:21:18.899Z,16.70
2023-02-15T02:26:29.206Z,15.32
2023-02-15T02:32:01.031Z,15.35
2023-02-15T02:37:14.183Z,16.45
2023-02-15T02:42:21.391Z,14.68
2023-02-15T02:47:19.899Z,13.23
2023-02-15T02:52:48.492Z,13.45
2023-02-15T02:57:51.423Z,13.10
2023-02-15T03:02:46.993Z,14.13
2023-02-15T03:07:41.769Z,12.13
2023-02-15T03:12:37.886Z,12.13
2023-02-15T03:17:46.951Z,12.43
2023-02-15T03:22:47.594Z,13.98
2023-02-15T03:27:42.854Z,14.27
2023-02-15T03:32:36.205Z,15.35
2023-02-15T03:37:40.476Z,16.48
2023-02-15T03:42:35.465Z,14.35
2023-02-15T03:47:32.445Z,14.18
2023-02-15T03:52:28.041Z,13.60
2023-02-15T03:57:43.753Z,13.20
2023-02-15T04:03:18.839Z,12.85
2023-02-15T04:08:13.610Z,13.40
2023-02-15T04:13:07.157Z,13.23
2023-02-15T04:18:01.139Z,14.07
2023-02-15T04:23:12.498Z,11.50
2023-02-15T04:28:05.818Z,14.48
2023-02-15T04:32:59.114Z,12.50
2023-02-15T04:37:53.363Z,14.90
2023-02-15T04:42:48.088Z,14.00
2023-02-15T04:47:40.660Z,11.98
2023-02-15T04:52:34.988Z,13.95
2023-02-15T04:57:28.152Z,12.75
2023-02-15T05:02:21.720Z,12.43
2023-02-15T05:07:16.332Z,13.82
2023-02-15T05:12:10.376Z,12.93
2023-02-15T05:17:04.947Z,12.35
2023-02-15T05:21:57.278Z,12.82
2023-02-15T05:27:09.125Z,12.45
2023-02-15T05:32:02.077Z,12.18
2023-02-15T05:36:55.655Z,11.73
2023-02-15T05:41:49.304Z,10.68
2023-02-15T05:46:43.668Z,10.82
2023-02-15T05:51:36.493Z,11.52
2023-02-15T05:56:29.511Z,13.18
2023-02-15T06:01:24.713Z,10.02
2023-02-15T06:06:17.842Z,10.27
2023-02-15T06:11:11.800Z,12.45
2023-02-15T06:16:05.843Z,13.20
2023-02-15T06:20:59.465Z,13.40
2023-02-15T06:25:52.305Z,11.02
2023-02-15T06:30:46.201Z,13.00
2023-02-15T06:35:39.445Z,11.40
2023-02-15T06:40:33.193Z,11.48
2023-02-15T06:45:26.312Z,12.13
2023-02-15T06:50:20.326Z,9.65
2023-02-15T06:55:13.186Z,10.00
2023-02-15T07:00:08.545Z,11.20
2023-02-15T07:05:02.547Z,11.82
2023-02-15T07:09:55.624Z,12.00
2023-02-15T07:14:48.036Z,11.35
2023-02-15T07:19:41.022Z,13.65
2023-02-15T07:24:33.698Z,11.32
2023-02-15T07:29:27.333Z,11.45
2023-02-15T07:34:20.857Z,9.88
2023-02-15T07:39:15.125Z,10.95
2023-02-15T07:44:14.280Z,14.00
2023-02-15T07:49:07.728Z,13.27
2023-02-15T07:54:00.933Z,10.65
2023-02-15T07:58:55.636Z,8.90
2023-02-15T08:03:49.064Z,9.75
2023-02-15T08:08:43.418Z,10.38
2023-02-15T08:13:54.901Z,9.35
2023-02-15T08:18:47.609Z,9.20
2023-02-15T08:23:41.577Z,10.02
2023-02-15T08:28:35.050Z,11.32
2023-02-15T08:33:29.625Z,10.00
2023-02-15T08:38:22.506Z,12.45
2023-02-15T08:43:15.122Z,13.10
2023-02-15T08:48:09.055Z,12.70
2023-02-15T08:53:02.831Z,14.40
2023-02-15T08:57:56.869Z,17.35
2023-02-15T09:02:50.165Z,18.23
2023-02-15T09:07:44.036Z,19.08
2023-02-15T09:12:38.012Z,18.92
2023-02-15T09:17:31.999Z,19.40
2023-02-15T09:22:26.005Z,21.85
2023-02-15T09:27:19.600Z,26.30
2023-02-15T09:32:16.974Z,25.27
2023-02-15T09:37:10.444Z,22.10
2023-02-15T09:42:11.746Z,22.55
2023-02-15T09:47:27.994Z,21.42
2023-02-15T09:52:36.361Z,22.25
2023-02-15T09:57:54.500Z,23.17
2023-02-15T10:03:38.830Z,21.10
2023-02-15T10:08:37.977Z,20.63
2023-02-15T10:13:48.296Z,19.70
2023-02-15T10:19:01.435Z,23.77
2023-02-15T10:24:05.127Z,25.42
2023-02-15T10:29:23.117Z,26.27
2023-02-15T10:34:27.915Z,26.33
2023-02-15T10:40:05.766Z,25.50
2023-02-15T10:45:22.821Z,22.83
2023-02-15T10:50:26.324Z,26.63
2023-02-15T10:55:32.056Z,25.90
2023-02-15T11:00:52.496Z,27.02
2023-02-15T11:05:59.114Z,28.88
2023-02-15T11:11:03.957Z,28.02
2023-02-15T11:16:05.336Z,26.90
2023-02-15T11:21:01.456Z,29.10
2023-02-15T11:26:01.103Z,27.90
2023-02-15T11:30:57.481Z,30.38
2023-02-15T11:36:03.790Z,33.75
2023-02-15T11:41:05.729Z,29.85
2023-02-15T11:45:59.217Z,30.60
2023-02-15T11:50:52.426Z,32.25
2023-02-15T11:55:46.855Z,32.05
2023-02-15T12:00:46.534Z,33.13
2023-02-15T12:05:42.168Z,29.88
2023-02-15T12:11:25.736Z,30.77
2023-02-15T12:16:20.235Z,32.42
2023-02-15T12:21:17.329Z,31.45
2023-02-15T12:26:10.039Z,35.45
2023-02-15T12:31:06.216Z,31.80
2023-02-15T12:36:03.281Z,32.47
2023-02-15T12:41:01.857Z,31.40
2023-02-15T12:45:55.613Z,31.88
2023-02-15T12:50:57.776Z,31.50
2023-02-15T12:55:59.495Z,28.77
2023-02-15T13:01:04.901Z,28.75
2023-02-15T13:06:00.270Z,29.55
2023-02-15T13:10:55.337Z,30.48
2023-02-15T13:15:51.442Z,29.15
2023-02-15T13:20:46.154Z,29.25
2023-02-15T13:25:51.877Z,29.30
2023-02-15T13:30:47.496Z,34.03
2023-02-15T13:35:56.119Z,32.97
2023-02-15T13:41:00.061Z,35.47
2023-02-15T13:46:15.410Z,34.25
2023-02-15T13:51:15.020Z,36.05
2023-02-15T13:56:37.931Z,30.40
2023-02-15T14:02:05.401Z,30.63
2023-02-15T14:07:21.165Z,28.30
2023-02-15T14:12:25.842Z,29.35
2023-02-15T14:17:27.373Z,31.75
2023-02-15T14:22:21.321Z,27.25
2023-02-15T14:27:30.153Z,28.88
2023-02-15T14:32:27.572Z,29.47
2023-02-15T14:37:41.060Z,29.35
2023-02-15T14:42:50.554Z,28.13
2023-02-15T14:47:47.433Z,32.55
2023-02-15T14:53:18.363Z,30.08
2023-02-15T14:58:14.379Z,25.10
2023-02-15T15:03:26.204Z,26.70
2023-02-15T15:08:40.149Z,27.92
2023-02-15T15:13:33.562Z,28.50
2023-02-15T15:18:56.036Z,27.98
2023-02-15T15:24:08.365Z,29.27
2023-02-15T15:29:41.052Z,27.98
2023-02-15T15:34:55.845Z,29.02
2023-02-15T15:40:14.572Z,31.83
2023-02-15T15:45:45.003Z,31.08
2023-02-15T15:50:41.514Z,32.50
2023-02-15T15:55:35.685Z,32.08
2023-02-15T16:00:46.137Z,34.75
2023-02-15T16:05:40.566Z,34.80
2023-02-15T16:10:34.124Z,34.95
2023-02-15T16:15:51.118Z,32.13
2023-02-15T16:20:54.959Z,31.35
2023-02-15T16:26:13.559Z,34.25
2023-02-15T16:31:13.150Z,31.63
2023-02-15T16:36:09.351Z,33.75
2023-02-15T16:41:03.252Z,32.45
2023-02-15T16:46:08.085Z,30.92
2023-02-15T16:51:01.783Z,31.88
2023-02-15T16:55:58.485Z,29.38
2023-02-15T17:00:51.756Z,32.47
2023-02-15T17:05:50.257Z,30.38
2023-02-15T17:10:44.206Z,35.13
2023-02-15T17:15:39.918Z,33.75
2023-02-15T17:20:37.065Z,41.30
2023-02-15T17:25:41.408Z,32.83
2023-02-15T17:30:36.160Z,35.22
2023-02-15T17:36:25.029Z,34.53
2023-02-15T17:41:19.525Z,32.35
2023-02-15T17:46:12.497Z,36.10
2023-02-15T17:51:07.472Z,36.58
2023-02-15T17:56:00.308Z,37.22
2023-02-15T18:01:15.108Z,38.22
2023-02-15T18:06:27.087Z,31.95
2023-02-15T18:11:54.977Z,37.63
2023-02-15T18:16:47.978Z,47.33
2023-02-15T18:21:40.736Z,41.25
2023-02-15T18:26:33.722Z,48.53
2023-02-15T18:31:26.882Z,47.08
2023-02-15T18:36:33.569Z,44.47
2023-02-15T18:41:27.387Z,39.55
2023-02-15T18:46:21.326Z,39.15
2023-02-15T18:51:19.908Z,35.42
2023-02-15T19:01:17.440Z,39.47
2023-02-15T19:06:13.189Z,40.22
2023-02-15T19:11:06.484Z,42.13
2023-02-15T19:16:05.973Z,46.42
2023-02-15T19:21:00.790Z,45.05
2023-02-15T19:25:53.980Z,46.28
2023-02-15T19:30:47.870Z,46.42
2023-02-15T19:35:41.102Z,60.38
2023-02-15T19:40:38.141Z,49.42
2023-02-15T19:45:34.508Z,47.35
2023-02-15T19:50:30.574Z,44.80
2023-02-15T19:55:31.947Z,44.67
2023-02-15T20:00:27.504Z,44.80
2023-02-15T20:05:21.282Z,49.92
2023-02-15T20:10:18.519Z,41.53
2023-02-15T20:15:35.545Z,39.42
2023-02-15T20:20:34.306Z,41.40
2023-02-15T20:25:32.178Z,45.07
2023-02-15T20:30:28.135Z,42.35
2023-02-15T20:35:24.460Z,35.67
2023-02-15T20:40:20.686Z,40.38
2023-02-15T20:45:20.405Z,36.55
2023-02-15T20:50:14.804Z,54.10
2023-02-15T20:55:23.242Z,57.53
2023-02-15T21:00:20.690Z,39.38
2023-02-15T21:05:25.517Z,42.70
2023-02-15T21:10:20.336Z,53.42
2023-02-15T21:15:36.295Z,49.88
2023-02-15T21:20:31.456Z,43.45
2023-02-15T21:25:34.098Z,44.65
2023-02-15T21:30:27.538Z,48.80
2023-02-15T21:35:21.586Z,45.38
2023-02-15T21:40:14.289Z,46.45
2023-02-15T21:45:37.448Z,41.65
2023-02-15T21:50:47.980Z,38.45
2023-02-15T21:55:41.576Z,33.35
2023-02-15T22:00:35.281Z,33.72
2023-02-15T22:05:31.236Z,32.03
2023-02-15T22:10:28.490Z,31.75
2023-02-15T22:15:25.274Z,31.95
2023-02-15T22:20:21.629Z,31.70
2023-02-15T22:25:38.893Z,31.20
2023-02-15T22:30:37.463Z,28.35
2023-02-15T22:35:34.943Z,26.27
2023-02-15T22:40:34.791Z,25.98
2023-02-15T22:45:29.616Z,35.70
2023-02-15T22:50:26.028Z,27.38
2023-02-15T22:55:20.820Z,23.52
2023-02-15T23:00:21.187Z,25.27
2023-02-15T23:05:19.994Z,21.95
2023-02-15T23:10:21.791Z,22.50
2023-02-15T23:15:15.604Z,21.48
2023-02-15T23:20:14.216Z,22.25
2023-02-15T23:25:11.674Z,19.88
2023-02-15T23:30:10.896Z,20.83
2023-02-15T23:35:11.817Z,19.52
2023-02-15T23:40:23.619Z,19.52
2023-02-15T23:45:23.861Z,19.83
2023-02-15T23:50:26.090Z,21.05
2023-02-15T23:55:20.229Z,23.27
